createdAt,value
2022-12-29T00:14:19.205Z,2.02
2022-12-29T00:17:30.485Z,1.97
2022-12-29T00:20:58.684Z,2.02
2022-12-29T00:28:03.059Z,1.99
2022-12-29T00:31:49.442Z,2.00
2022-12-29T00:38:23.561Z,2.09
2022-12-29T00:41:52.029Z,2.13
2022-12-29T00:52:30.621Z,2.18
2022-12-29T00:55:59.815Z,2.22
2022-12-29T01:06:37.998Z,2.20
2022-12-29T01:13:34.673Z,2.26
2022-12-29T01:20:34.979Z,2.92
2022-12-29T01:27:29.424Z,3.68
2022-12-29T01:30:41.940Z,3.85
2022-12-29T01:33:54.275Z,3.92
2022-12-29T01:37:06.189Z,4.04
2022-12-29T01:40:20.387Z,4.15
2022-12-29T01:43:51.536Z,4.25
2022-12-29T01:47:05.294Z,4.29
2022-12-29T01:50:22.519Z,4.34
2022-12-29T01:53:40.306Z,4.43
2022-12-29T01:56:54.082Z,4.50
2022-12-29T02:00:38.936Z,4.49
2022-12-29T02:03:51.034Z,4.52
2022-12-29T02:07:11.540Z,4.51
2022-12-29T02:10:24.906Z,4.59
2022-12-29T02:13:37.475Z,4.60
2022-12-29T02:17:38.317Z,4.66
2022-12-29T02:21:53.310Z,4.68
2022-12-29T02:25:50.791Z,4.73
2022-12-29T02:29:46.114Z,4.73
2022-12-29T02:37:18.807Z,4.73
2022-12-29T02:40:36.546Z,4.74
2022-12-29T02:43:58.579Z,4.70
2022-12-29T02:47:32.297Z,4.74
2022-12-29T02:50:50.086Z,4.75
2022-12-29T02:54:19.541Z,4.70
2022-12-29T02:57:41.258Z,4.70
2022-12-29T03:01:04.375Z,4.69
2022-12-29T03:04:30.923Z,4.56
2022-12-29T03:07:51.985Z,4.52
2022-12-29T03:11:11.924Z,4.55
2022-12-29T03:14:45.634Z,4.52
2022-12-29T03:18:35.068Z,4.44
2022-12-29T03:26:26.511Z,4.64
2022-12-29T03:29:43.332Z,4.79
2022-12-29T03:32:59.937Z,4.87
2022-12-29T03:36:19.621Z,4.87
2022-12-29T03:39:33.767Z,4.89
2022-12-29T03:42:47.959Z,4.90
2022-12-29T03:46:00.831Z,4.75
2022-12-29T03:49:13.182Z,4.50
2022-12-29T03:52:25.258Z,4.42
2022-12-29T03:55:37.769Z,4.34
2022-12-29T03:58:49.784Z,4.25
2022-12-29T04:02:03.729Z,4.23
2022-12-29T04:05:17.143Z,4.09
2022-12-29T04:08:29.377Z,3.92
2022-12-29T04:11:41.568Z,3.77
2022-12-29T04:14:53.684Z,3.71
2022-12-29T04:18:05.827Z,3.63
2022-12-29T04:21:18.999Z,3.57
2022-12-29T04:24:31.116Z,3.50
2022-12-29T04:27:43.431Z,3.46
2022-12-29T04:31:14.350Z,3.43
2022-12-29T04:34:28.121Z,3.43
2022-12-29T04:37:40.222Z,3.42
2022-12-29T04:40:53.405Z,3.42
2022-12-29T05:18:28.786Z,3.64
2022-12-29T05:21:40.900Z,3.91
2022-12-29T05:24:53.650Z,4.05
2022-12-29T05:28:05.860Z,4.17
2022-12-29T05:31:32.537Z,4.29
2022-12-29T05:34:44.745Z,4.36
2022-12-29T05:37:56.919Z,4.45
2022-12-29T05:41:09.140Z,4.52
2022-12-29T05:44:39.397Z,4.60
2022-12-29T05:47:57.213Z,4.66
2022-12-29T05:51:14.095Z,4.84
2022-12-29T05:54:28.538Z,4.96
2022-12-29T06:01:58.989Z,5.20
2022-12-29T06:05:12.839Z,5.19
2022-12-29T06:22:17.192Z,5.11
2022-12-29T06:25:32.162Z,5.11
2022-12-29T06:28:44.467Z,5.26
2022-12-29T06:31:59.224Z,5.26
2022-12-29T06:35:14.529Z,5.24
2022-12-29T06:38:36.318Z,5.32
2022-12-29T06:41:48.549Z,5.37
2022-12-29T06:45:10.140Z,5.36
2022-12-29T06:48:22.142Z,5.36
2022-12-29T06:51:34.183Z,5.40
2022-12-29T06:54:48.836Z,5.23
2022-12-29T06:58:03.366Z,5.06
2022-12-29T07:01:15.464Z,5.21
2022-12-29T07:04:28.354Z,5.43
2022-12-29T07:07:40.282Z,5.56
2022-12-29T07:10:52.369Z,5.69
2022-12-29T07:14:04.287Z,5.75
2022-12-29T07:17:16.346Z,5.81
2022-12-29T07:20:29.138Z,5.83
2022-12-29T07:23:41.377Z,5.87
2022-12-29T07:26:53.264Z,5.87
2022-12-29T07:30:05.276Z,5.84
2022-12-29T07:33:17.107Z,5.66
2022-12-29T07:36:34.155Z,5.24
2022-12-29T07:39:44.177Z,4.92
2022-12-29T07:42:55.952Z,4.75
2022-12-29T07:46:14.592Z,4.61
2022-12-29T07:49:24.039Z,4.46
2022-12-29T07:52:36.153Z,4.35
2022-12-29T07:55:48.799Z,4.26
2022-12-29T07:59:00.814Z,4.24
2022-12-29T08:02:14.016Z,4.24
2022-12-29T08:05:27.445Z,4.16
2022-12-29T08:08:39.317Z,4.21
2022-12-29T08:11:51.565Z,4.33
2022-12-29T08:15:03.391Z,4.37
2022-12-29T08:18:15.651Z,4.43
2022-12-29T08:21:27.501Z,4.40
2022-12-29T08:24:39.447Z,4.39
2022-12-29T08:27:51.457Z,4.39
2022-12-29T08:31:06.274Z,4.38
2022-12-29T08:34:18.512Z,4.32
2022-12-29T08:37:31.428Z,4.23
2022-12-29T08:40:44.388Z,4.18
2022-12-29T08:43:56.863Z,4.37
2022-12-29T08:47:09.208Z,4.76
2022-12-29T08:50:21.298Z,5.06
2022-12-29T08:53:33.123Z,5.28
2022-12-29T08:56:46.127Z,5.43
2022-12-29T08:59:59.500Z,5.67
2022-12-29T09:03:12.003Z,5.84
2022-12-29T09:06:25.713Z,5.90
2022-12-29T09:09:38.030Z,5.99
2022-12-29T09:12:49.901Z,6.15
2022-12-29T09:16:08.755Z,6.31
2022-12-29T09:19:20.679Z,6.32
2022-12-29T09:22:32.678Z,6.45
2022-12-29T09:25:45.710Z,6.51
2022-12-29T09:28:57.930Z,6.58
2022-12-29T09:32:15.452Z,6.59
2022-12-29T09:35:25.383Z,6.90
2022-12-29T09:38:37.492Z,7.24
2022-12-29T09:41:54.496Z,7.39
2022-12-29T09:45:10.038Z,7.69
2022-12-29T09:48:25.525Z,7.98
2022-12-29T09:51:38.306Z,8.28
2022-12-29T09:55:02.897Z,8.36
2022-12-29T09:58:19.151Z,8.45
2022-12-29T10:01:39.169Z,8.50
2022-12-29T10:04:52.124Z,8.53
2022-12-29T10:08:21.737Z,8.56
2022-12-29T10:11:44.500Z,8.58
2022-12-29T10:15:07.558Z,8.62
2022-12-29T10:19:00.728Z,8.70
2022-12-29T10:22:22.992Z,8.84
2022-12-29T10:25:40.382Z,9.02
2022-12-29T10:28:57.488Z,9.11
2022-12-29T10:32:11.268Z,9.21
2022-12-29T10:35:27.129Z,9.28
2022-12-29T10:38:45.500Z,9.39
2022-12-29T10:42:02.961Z,9.49
2022-12-29T10:45:21.726Z,9.63
2022-12-29T10:48:39.126Z,9.71
2022-12-29T10:51:55.564Z,9.85
2022-12-29T10:55:13.462Z,9.99
2022-12-29T10:58:27.007Z,10.11
2022-12-29T11:01:48.083Z,10.38
2022-12-29T11:05:08.467Z,10.63
2022-12-29T11:08:25.597Z,10.79
2022-12-29T11:11:43.460Z,10.87
2022-12-29T11:15:23.648Z,10.98
2022-12-29T11:18:43.569Z,11.04
2022-12-29T11:21:56.544Z,11.12
2022-12-29T11:25:17.656Z,11.19
2022-12-29T11:28:34.411Z,11.30
2022-12-29T11:31:49.173Z,11.35
2022-12-29T11:35:02.764Z,11.53
2022-12-29T11:38:25.688Z,11.53
2022-12-29T11:41:39.669Z,11.50
2022-12-29T11:44:54.691Z,11.54
2022-12-29T11:48:13.302Z,12.05
2022-12-29T11:51:34.974Z,12.35
2022-12-29T11:54:47.344Z,12.63
2022-12-29T11:58:02.702Z,13.03
2022-12-29T12:01:21.130Z,13.14
2022-12-29T12:04:38.167Z,13.19
2022-12-29T12:07:53.288Z,13.30
2022-12-29T12:11:12.113Z,13.22
2022-12-29T12:14:29.465Z,12.95
2022-12-29T12:18:00.477Z,12.84
2022-12-29T12:21:21.675Z,12.79
2022-12-29T12:24:49.722Z,12.67
2022-12-29T12:28:07.994Z,12.53
2022-12-29T12:31:30.621Z,12.46
2022-12-29T12:34:48.005Z,12.42
2022-12-29T12:38:12.295Z,12.36
2022-12-29T12:41:33.522Z,12.28
2022-12-29T12:44:54.106Z,12.23
2022-12-29T12:48:17.641Z,12.16
2022-12-29T12:51:36.097Z,12.13
2022-12-29T12:55:10.088Z,12.09
2022-12-29T12:58:30.620Z,12.02
2022-12-29T13:01:51.262Z,11.99
2022-12-29T13:05:26.994Z,11.96
2022-12-29T13:09:07.214Z,11.94
2022-12-29T13:12:30.647Z,11.94
2022-12-29T13:15:52.039Z,11.96
2022-12-29T13:19:11.385Z,11.92
2022-12-29T13:22:29.453Z,11.89
2022-12-29T13:25:47.492Z,11.88
2022-12-29T13:29:04.977Z,11.87
2022-12-29T13:32:30.884Z,11.81
2022-12-29T13:35:59.832Z,11.84
2022-12-29T13:39:21.066Z,11.87
2022-12-29T13:42:33.501Z,11.85
2022-12-29T13:45:47.681Z,11.85
2022-12-29T13:49:04.010Z,11.81
2022-12-29T13:52:21.875Z,11.77
2022-12-29T13:55:39.787Z,11.74
2022-12-29T13:58:58.462Z,11.69
2022-12-29T14:02:18.970Z,11.65
2022-12-29T14:05:39.276Z,11.59
2022-12-29T14:08:53.110Z,11.49
2022-12-29T14:12:05.259Z,11.42
2022-12-29T14:15:32.777Z,11.35
2022-12-29T14:18:50.798Z,11.29
2022-12-29T14:22:07.333Z,11.21
2022-12-29T14:26:02.094Z,11.11
2022-12-29T14:29:50.561Z,11.04
2022-12-29T14:33:19.090Z,11.03
2022-12-29T14:36:40.164Z,11.02
2022-12-29T14:39:53.039Z,10.96
2022-12-29T14:43:06.050Z,10.89
2022-12-29T14:46:18.266Z,10.84
2022-12-29T14:49:33.731Z,10.79
2022-12-29T14:53:00.112Z,10.71
2022-12-29T14:56:08.311Z,10.69
2022-12-29T14:59:22.127Z,10.59
2022-12-29T15:02:39.989Z,10.41
2022-12-29T15:05:56.330Z,10.29
2022-12-29T15:09:20.007Z,10.16
2022-12-29T15:12:38.545Z,10.12
2022-12-29T15:15:50.650Z,10.03
2022-12-29T15:19:02.921Z,9.96
2022-12-29T15:22:16.165Z,9.88
2022-12-29T15:25:29.109Z,9.81
2022-12-29T15:28:49.716Z,9.72
2022-12-29T15:32:02.401Z,9.65
2022-12-29T15:35:30.671Z,9.61
2022-12-29T15:38:42.743Z,9.55
2022-12-29T15:42:06.240Z,9.49
2022-12-29T15:45:20.214Z,9.41
2022-12-29T15:52:18.643Z,9.28
2022-12-29T15:55:37.904Z,9.23
2022-12-29T15:58:52.949Z,9.18
2022-12-29T16:02:12.107Z,9.10
2022-12-29T16:09:12.879Z,9.00
2022-12-29T16:12:28.459Z,8.97
2022-12-29T16:15:40.711Z,8.94
2022-12-29T16:18:57.719Z,8.89
2022-12-29T16:22:12.157Z,8.86
2022-12-29T16:25:27.858Z,8.86
2022-12-29T16:28:46.942Z,8.80
2022-12-29T16:32:05.014Z,8.77
2022-12-29T16:35:25.057Z,8.71
2022-12-29T16:38:42.997Z,8.68
2022-12-29T16:41:56.023Z,8.66
2022-12-29T16:45:29.424Z,8.63
2022-12-29T16:48:46.032Z,8.56
2022-12-29T16:51:59.454Z,8.51
2022-12-29T16:55:20.186Z,8.49
2022-12-29T16:58:36.243Z,8.40
2022-12-29T17:01:49.046Z,8.35
2022-12-29T17:05:01.510Z,8.41
2022-12-29T17:08:27.937Z,8.48
2022-12-29T17:12:06.946Z,8.53
2022-12-29T17:15:19.284Z,8.49
2022-12-29T17:18:29.440Z,8.41
2022-12-29T17:21:41.398Z,8.27
2022-12-29T17:24:55.871Z,8.13
2022-12-29T17:28:11.456Z,7.92
2022-12-29T17:31:23.674Z,7.82
2022-12-29T17:38:25.842Z,7.66
2022-12-29T17:41:39.072Z,7.64
2022-12-29T17:48:32.816Z,7.40
2022-12-29T17:51:45.173Z,7.42
2022-12-29T17:55:01.055Z,7.18
2022-12-29T17:58:27.692Z,7.13
2022-12-29T18:01:45.141Z,7.00
2022-12-29T18:04:54.080Z,6.81
2022-12-29T18:08:06.751Z,6.66
2022-12-29T18:11:29.208Z,6.61
2022-12-29T18:14:41.145Z,6.84
2022-12-29T18:17:53.630Z,7.16
2022-12-29T18:21:07.746Z,7.33
2022-12-29T18:24:21.403Z,7.47
2022-12-29T18:27:46.200Z,7.64
2022-12-29T18:30:59.008Z,7.75
2022-12-29T18:34:19.364Z,7.84
2022-12-29T18:37:31.359Z,7.97
2022-12-29T18:40:45.651Z,8.08
2022-12-29T18:43:58.314Z,8.05
2022-12-29T18:47:11.053Z,7.99
2022-12-29T18:50:24.086Z,7.92
2022-12-29T18:53:38.090Z,7.85
2022-12-29T18:56:50.099Z,7.80
2022-12-29T19:00:11.128Z,7.64
2022-12-29T19:11:26.061Z,7.00
2022-12-29T19:18:44.228Z,6.79
2022-12-29T19:47:10.367Z,6.26
2022-12-29T19:54:41.831Z,6.12
2022-12-29T19:57:54.995Z,6.09
2022-12-29T20:01:42.990Z,5.97
2022-12-29T20:13:34.842Z,5.80
2022-12-29T20:17:09.496Z,5.86
2022-12-29T20:20:01.114Z,6.22
2022-12-29T20:23:13.389Z,6.63
2022-12-29T20:26:29.376Z,6.98
2022-12-29T20:29:44.275Z,7.37
2022-12-29T20:33:08.528Z,7.64
2022-12-29T20:36:39.070Z,7.80
2022-12-29T20:39:51.472Z,7.95
2022-12-29T20:43:03.785Z,8.04
2022-12-29T20:56:53.383Z,8.41
2022-12-29T21:00:06.621Z,8.52
2022-12-29T21:03:18.859Z,8.59
2022-12-29T21:06:31.134Z,8.57
2022-12-29T21:09:43.249Z,8.62
2022-12-29T21:12:55.534Z,8.61
2022-12-29T21:16:11.265Z,8.63
2022-12-29T21:23:05.431Z,8.64
2022-12-29T21:48:08.175Z,8.56
2022-12-29T22:04:25.278Z,8.40
2022-12-29T22:07:52.220Z,8.43
2022-12-29T22:25:53.177Z,8.64
2022-12-29T22:32:09.216Z,8.61
2022-12-29T22:35:21.506Z,8.54
2022-12-29T22:51:21.513Z,8.62
2022-12-29T22:54:33.464Z,8.66
2022-12-29T22:57:45.621Z,8.58
2022-12-29T23:00:57.773Z,8.55
2022-12-29T23:04:58.771Z,8.51
2022-12-29T23:07:24.031Z,8.45
2022-12-29T23:10:36.341Z,8.41
2022-12-29T23:13:49.121Z,8.40
2022-12-29T23:17:01.014Z,8.43
2022-12-29T23:20:15.946Z,8.43
2022-12-29T23:23:46.219Z,8.43
2022-12-29T23:26:54.675Z,8.44
2022-12-29T23:30:06.693Z,8.39
2022-12-29T23:33:19.309Z,8.34
2022-12-29T23:36:33.042Z,8.29
2022-12-29T23:43:37.516Z,8.19
2022-12-29T23:46:49.614Z,8.10
2022-12-29T23:50:01.690Z,8.04
2022-12-29T23:53:14.170Z,8.00
2022-12-29T23:56:28.068Z,7.97
2022-12-29T23:59:40.128Z,8.01
